createdAt,value
2024-04-23T00:00:42.707Z,72.83
2024-04-23T00:01:42.683Z,72.72
2024-04-23T00:02:42.695Z,72.62
2024-04-23T00:03:42.707Z,72.62
2024-04-23T00:04:42.819Z,72.62
2024-04-23T00:05:42.645Z,72.72
2024-04-23T00:06:42.635Z,72.83
2024-04-23T00:07:42.686Z,72.72
2024-04-23T00:08:42.633Z,72.62
2024-04-23T00:09:42.604Z,72.51
2024-04-23T00:10:42.655Z,72.41
2024-04-23T00:11:42.622Z,72.62
2024-04-23T00:12:42.574Z,72.62
2024-04-23T00:13:42.619Z,72.62
2024-04-23T00:14:42.564Z,72.72
2024-04-23T00:15:42.551Z,72.93
2024-04-23T00:16:42.611Z,73.14
2024-04-23T00:17:42.642Z,73.14
2024-04-23T00:18:42.629Z,73.24
2024-04-23T00:19:42.529Z,73.24
2024-04-23T00:20:42.494Z,73.27
2024-04-23T00:21:42.498Z,73.59
2024-04-23T00:22:42.488Z,73.69
2024-04-23T00:23:42.452Z,73.69
2024-04-23T00:24:42.473Z,73.80
2024-04-23T00:25:42.497Z,74.01
2024-04-23T00:26:42.423Z,73.90
2024-04-23T00:27:42.412Z,73.90
2024-04-23T00:28:42.494Z,74.11
2024-04-23T00:29:42.396Z,74.11
2024-04-23T00:30:42.385Z,74.01
2024-04-23T00:31:42.377Z,73.90
2024-04-23T00:32:42.392Z,74.01
2024-04-23T00:33:42.352Z,74.11
2024-04-23T00:34:42.383Z,74.25
2024-04-23T00:35:42.333Z,74.21
2024-04-23T00:36:42.331Z,74.15
2024-04-23T00:37:42.367Z,74.35
2024-04-23T00:38:42.352Z,74.46
2024-04-23T00:39:42.332Z,74.46
2024-04-23T00:40:42.326Z,74.56
2024-04-23T00:41:42.288Z,74.66
2024-04-23T00:42:42.279Z,74.66
2024-04-23T00:43:42.273Z,74.66
2024-04-23T00:44:42.289Z,74.56
2024-04-23T00:45:42.229Z,74.46
2024-04-23T00:46:42.271Z,74.46
2024-04-23T00:47:42.230Z,74.56
2024-04-23T00:48:42.204Z,74.46
2024-04-23T00:49:42.259Z,74.56
2024-04-23T00:50:42.205Z,74.56
2024-04-23T00:51:42.173Z,74.46
2024-04-23T00:52:42.182Z,74.35
2024-04-23T00:53:42.145Z,74.35
2024-04-23T00:54:42.141Z,74.25
2024-04-23T00:55:42.192Z,74.35
2024-04-23T00:56:42.118Z,74.56
2024-04-23T00:57:42.102Z,74.66
2024-04-23T00:58:43.927Z,74.56
2024-04-23T00:59:42.083Z,74.66
2024-04-23T01:00:42.098Z,74.77
2024-04-23T01:01:42.132Z,74.98
2024-04-23T01:02:42.141Z,74.98
2024-04-23T01:03:42.039Z,74.98
2024-04-23T01:04:42.069Z,75.01
2024-04-23T01:05:42.037Z,74.91
2024-04-23T01:06:42.032Z,74.80
2024-04-23T01:07:42.074Z,74.91
2024-04-23T01:08:42.013Z,74.91
2024-04-23T01:09:41.995Z,74.80
2024-04-23T01:10:42.027Z,75.01
2024-04-23T01:11:42.005Z,75.01
2024-04-23T01:12:41.951Z,75.12
2024-04-23T01:13:42.004Z,75.12
2024-04-23T01:14:41.928Z,75.01
2024-04-23T01:15:41.913Z,75.12
2024-04-23T01:16:41.938Z,75.01
2024-04-23T01:17:42.017Z,75.01
2024-04-23T01:18:41.885Z,75.12
2024-04-23T01:19:41.962Z,75.01
2024-04-23T01:20:41.882Z,74.80
2024-04-23T01:21:41.854Z,74.70
2024-04-23T01:22:41.876Z,74.60
2024-04-23T01:23:41.841Z,74.49
2024-04-23T01:24:41.830Z,74.49
2024-04-23T01:25:42.003Z,74.49
2024-04-23T01:26:41.800Z,74.38
2024-04-23T01:27:41.789Z,74.28
2024-04-23T01:28:41.837Z,74.28
2024-04-23T01:29:41.767Z,74.18
2024-04-23T01:30:41.766Z,74.07
2024-04-23T01:31:41.794Z,74.18
2024-04-23T01:32:41.814Z,74.07
2024-04-23T01:33:41.822Z,73.97
2024-04-23T01:34:41.798Z,73.97
2024-04-23T01:35:41.713Z,73.86
2024-04-23T01:36:41.730Z,73.76
2024-04-23T01:37:41.759Z,73.52
2024-04-23T01:38:41.697Z,73.31
2024-04-23T01:39:41.757Z,73.10
2024-04-23T01:40:41.672Z,73.10
2024-04-23T01:41:41.668Z,73.21
2024-04-23T01:42:41.646Z,73.10
2024-04-23T01:43:41.669Z,73.00
2024-04-23T01:44:41.634Z,73.00
2024-04-23T01:45:41.614Z,72.89
2024-04-23T01:46:41.661Z,72.78
2024-04-23T01:47:41.676Z,72.78
2024-04-23T01:48:41.593Z,72.89
2024-04-23T01:49:41.617Z,73.00
2024-04-23T01:50:41.555Z,72.89
2024-04-23T01:51:41.550Z,72.78
2024-04-23T01:52:41.553Z,72.78
2024-04-23T01:53:41.541Z,72.78
2024-04-23T01:54:41.536Z,72.68
2024-04-23T01:55:41.535Z,72.78
2024-04-23T01:56:41.484Z,72.68
2024-04-23T01:57:41.491Z,72.58
2024-04-23T01:58:41.518Z,72.72
2024-04-23T01:59:41.467Z,72.78
2024-04-23T02:00:41.523Z,72.78
2024-04-23T02:01:41.456Z,72.78
2024-04-23T02:02:41.445Z,72.78
2024-04-23T02:03:41.506Z,72.89
2024-04-23T02:04:41.425Z,73.00
2024-04-23T02:05:41.390Z,73.10
2024-04-23T02:06:41.377Z,73.24
2024-04-23T02:07:41.411Z,73.52
2024-04-23T02:08:41.389Z,73.45
2024-04-23T02:09:41.354Z,73.45
2024-04-23T02:10:41.636Z,73.62
2024-04-23T02:11:41.360Z,73.52
2024-04-23T02:12:41.329Z,73.31
2024-04-23T02:13:41.371Z,73.31
2024-04-23T02:14:41.297Z,73.21
2024-04-23T02:15:41.279Z,73.10
2024-04-23T02:16:41.310Z,73.10
2024-04-23T02:17:41.353Z,73.10
2024-04-23T02:18:41.338Z,73.13
2024-04-23T02:19:41.255Z,73.24
2024-04-23T02:20:41.236Z,73.31
2024-04-23T02:21:41.227Z,73.24
2024-04-23T02:22:41.243Z,73.13
2024-04-23T02:23:41.218Z,73.13
2024-04-23T02:24:41.194Z,72.92
2024-04-23T02:25:41.217Z,72.82
2024-04-23T02:26:41.181Z,72.51
2024-04-23T02:27:41.180Z,72.58
2024-04-23T02:28:41.239Z,72.58
2024-04-23T02:29:41.202Z,72.41
2024-04-23T02:30:41.170Z,72.47
2024-04-23T02:31:41.213Z,72.58
2024-04-23T02:32:41.253Z,72.68
2024-04-23T02:33:41.324Z,73.24
2024-04-23T02:34:41.211Z,73.03
2024-04-23T02:35:41.216Z,73.24
2024-04-23T02:36:41.091Z,73.34
2024-04-23T02:37:41.084Z,73.13
2024-04-23T02:38:41.066Z,73.24
2024-04-23T02:39:41.074Z,73.45
2024-04-23T02:40:41.057Z,73.66
2024-04-23T02:41:41.040Z,73.86
2024-04-23T02:42:41.013Z,74.07
2024-04-23T02:43:41.030Z,74.32
2024-04-23T02:44:41.043Z,74.52
2024-04-23T02:45:40.986Z,74.73
2024-04-23T02:46:41.034Z,74.84
2024-04-23T02:47:41.034Z,74.84
2024-04-23T02:48:41.050Z,74.94
2024-04-23T02:49:41.014Z,75.08
2024-04-23T02:50:40.950Z,75.18
2024-04-23T02:51:40.930Z,75.15
2024-04-23T02:52:40.924Z,75.15
2024-04-23T02:53:40.914Z,75.15
2024-04-23T02:54:40.889Z,75.15
2024-04-23T02:55:40.934Z,75.15
2024-04-23T02:56:40.868Z,75.15
2024-04-23T02:57:40.862Z,75.18
2024-04-23T02:58:40.878Z,75.29
2024-04-23T02:59:40.852Z,75.29
2024-04-23T03:00:40.879Z,75.29
2024-04-23T03:01:40.872Z,75.29
2024-04-23T03:02:40.854Z,75.39
2024-04-23T03:03:40.906Z,75.50
2024-04-23T03:04:40.834Z,75.39
2024-04-23T03:05:40.801Z,75.50
2024-04-23T03:06:40.800Z,75.39
2024-04-23T03:07:40.819Z,75.50
2024-04-23T03:08:40.795Z,75.71
2024-04-23T03:09:40.761Z,75.81
2024-04-23T03:10:40.772Z,75.81
2024-04-23T03:11:40.777Z,75.71
2024-04-23T03:12:40.714Z,75.71
2024-04-23T03:13:40.760Z,75.50
2024-04-23T03:14:40.696Z,75.50
2024-04-23T03:15:40.688Z,75.60
2024-04-23T03:16:40.754Z,75.50
2024-04-23T03:17:40.850Z,75.60
2024-04-23T03:18:40.691Z,75.50
2024-04-23T03:19:40.683Z,75.60
2024-04-23T03:20:40.628Z,75.71
2024-04-23T03:21:40.651Z,75.95
2024-04-23T03:22:40.655Z,76.06
2024-04-23T03:23:40.611Z,76.06
2024-04-23T03:24:40.587Z,76.06
2024-04-23T03:25:41.061Z,76.16
2024-04-23T03:26:40.607Z,76.16
2024-04-23T03:27:40.592Z,76.26
2024-04-23T03:28:40.568Z,76.16
2024-04-23T03:29:40.543Z,76.06
2024-04-23T03:30:40.531Z,76.16
2024-04-23T03:31:40.644Z,76.37
2024-04-23T03:32:40.733Z,76.26
2024-04-23T03:33:40.503Z,76.16
2024-04-23T03:34:40.512Z,75.95
2024-04-23T03:35:40.508Z,75.95
2024-04-23T03:36:40.604Z,75.85
2024-04-23T03:37:40.550Z,75.74
2024-04-23T03:38:40.483Z,75.63
2024-04-23T03:39:40.466Z,75.95
2024-04-23T03:40:40.478Z,75.85
2024-04-23T03:41:40.448Z,75.63
2024-04-23T03:42:40.435Z,75.29
2024-04-23T03:43:40.425Z,74.77
2024-04-23T03:44:41.607Z,74.35
2024-04-23T03:45:40.407Z,74.04
2024-04-23T03:46:40.496Z,73.83
2024-04-23T03:47:40.514Z,73.83
2024-04-23T03:48:40.406Z,73.72
2024-04-23T03:49:40.383Z,73.72
2024-04-23T03:50:40.356Z,73.72
2024-04-23T03:51:40.353Z,73.83
2024-04-23T03:52:40.345Z,74.04
2024-04-23T03:53:40.356Z,74.04
2024-04-23T03:54:40.320Z,74.24
2024-04-23T03:55:40.314Z,74.56
2024-04-23T03:56:40.282Z,74.87
2024-04-23T03:57:40.281Z,74.98
2024-04-23T03:58:40.307Z,74.87
2024-04-23T03:59:40.275Z,74.87
2024-04-23T04:00:40.350Z,74.87
2024-04-23T04:01:40.366Z,74.87
2024-04-23T04:02:40.436Z,74.98
2024-04-23T04:03:40.283Z,75.18
2024-04-23T04:04:40.234Z,75.32
2024-04-23T04:05:40.237Z,75.43
2024-04-23T04:06:40.195Z,75.39
2024-04-23T04:07:40.196Z,75.32
2024-04-23T04:08:40.182Z,75.08
2024-04-23T04:09:40.181Z,75.08
2024-04-23T04:10:40.202Z,74.87
2024-04-23T04:11:40.257Z,74.77
2024-04-23T04:12:40.122Z,74.56
2024-04-23T04:13:40.143Z,74.45
2024-04-23T04:14:40.113Z,74.56
2024-04-23T04:15:40.113Z,74.66
2024-04-23T04:16:40.159Z,74.66
2024-04-23T04:17:40.504Z,74.69
2024-04-23T04:18:40.079Z,74.69
2024-04-23T04:19:40.061Z,74.69
2024-04-23T04:20:40.053Z,74.59
2024-04-23T04:21:40.158Z,74.69
2024-04-23T04:22:40.049Z,74.69
2024-04-23T04:23:40.049Z,74.80
2024-04-23T04:24:40.032Z,74.69
2024-04-23T04:25:40.165Z,74.69
2024-04-23T04:26:40.042Z,74.80
2024-04-23T04:27:39.988Z,74.69
2024-04-23T04:28:40.016Z,74.69
2024-04-23T04:29:39.984Z,74.69
2024-04-23T04:30:39.982Z,74.66
2024-04-23T04:31:40.017Z,74.80
2024-04-23T04:32:40.032Z,74.87
2024-04-23T04:33:39.921Z,74.87
2024-04-23T04:34:39.945Z,74.66
2024-04-23T04:35:39.967Z,74.56
2024-04-23T04:36:39.909Z,74.56
2024-04-23T04:37:39.917Z,74.56
2024-04-23T04:38:39.897Z,74.45
2024-04-23T04:39:39.870Z,74.35
2024-04-23T04:40:39.870Z,74.24
2024-04-23T04:41:39.870Z,74.14
2024-04-23T04:42:39.840Z,74.24
2024-04-23T04:43:39.843Z,74.38
2024-04-23T04:44:39.836Z,74.38
2024-04-23T04:45:39.806Z,74.35
2024-04-23T04:46:39.834Z,74.38
2024-04-23T04:47:39.941Z,74.24
2024-04-23T04:48:39.836Z,74.24
2024-04-23T04:49:39.826Z,74.24
2024-04-23T04:50:39.764Z,74.35
2024-04-23T04:51:39.742Z,74.35
2024-04-23T04:52:39.802Z,74.35
2024-04-23T04:53:39.749Z,74.35
2024-04-23T04:54:39.719Z,74.66
2024-04-23T04:55:39.752Z,74.56
2024-04-23T04:56:39.697Z,74.56
2024-04-23T04:57:39.687Z,74.56
2024-04-23T04:58:39.723Z,74.56
2024-04-23T04:59:39.704Z,74.45
2024-04-23T05:00:42.422Z,74.45
2024-04-23T05:01:39.670Z,74.35
2024-04-23T05:02:39.693Z,74.24
2024-04-23T05:03:39.652Z,74.14
2024-04-23T05:04:39.652Z,74.14
2024-04-23T05:05:39.659Z,74.24
2024-04-23T05:06:39.607Z,74.24
2024-04-23T05:07:39.619Z,74.14
2024-04-23T05:08:39.588Z,74.04
2024-04-23T05:09:39.575Z,73.93
2024-04-23T05:10:39.569Z,73.83
2024-04-23T05:11:39.594Z,73.72
2024-04-23T05:12:39.565Z,73.72
2024-04-23T05:13:39.552Z,73.69
2024-04-23T05:14:39.529Z,73.79
2024-04-23T05:15:39.504Z,73.79
2024-04-23T05:16:39.513Z,73.79
2024-04-23T05:17:39.607Z,73.69
2024-04-23T05:18:39.505Z,73.69
2024-04-23T05:19:39.535Z,73.58
2024-04-23T05:20:39.481Z,73.38
2024-04-23T05:21:39.461Z,73.38
2024-04-23T05:22:39.456Z,73.27
2024-04-23T05:23:39.455Z,73.13
2024-04-23T05:24:39.413Z,73.13
2024-04-23T05:25:39.427Z,73.13
2024-04-23T05:29:01.101Z,72.92
2024-04-23T05:30:02.054Z,73.03
2024-04-23T05:31:02.006Z,73.03
2024-04-23T05:32:02.180Z,72.89
2024-04-23T05:33:03.696Z,72.89
2024-04-23T05:34:01.985Z,72.78
2024-04-23T05:35:02.143Z,72.58
2024-04-23T05:36:01.965Z,72.37
2024-04-23T05:37:01.999Z,72.37
2024-04-23T05:38:02.126Z,72.16
2024-04-23T05:39:01.943Z,72.13
2024-04-23T05:40:01.939Z,71.81
2024-04-23T05:41:01.979Z,71.50
2024-04-23T05:42:01.899Z,71.61
2024-04-23T05:43:01.900Z,71.81
2024-04-23T05:44:02.019Z,71.81
2024-04-23T05:45:01.912Z,71.81
2024-04-23T05:46:01.843Z,71.58
2024-04-23T05:47:01.948Z,71.58
2024-04-23T05:48:01.896Z,71.37
2024-04-23T05:49:01.823Z,71.47
2024-04-23T05:50:02.006Z,71.37
2024-04-23T05:51:01.842Z,71.05
2024-04-23T05:52:04.968Z,70.32
2024-04-23T05:53:01.852Z,69.59
2024-04-23T05:54:01.758Z,69.04
2024-04-23T05:55:01.752Z,68.73
2024-04-23T05:56:01.795Z,68.73
2024-04-23T05:57:01.755Z,68.94
2024-04-23T05:58:01.741Z,68.94
2024-04-23T05:59:01.772Z,68.84
2024-04-23T06:00:01.706Z,68.73
2024-04-23T06:01:01.738Z,68.73
2024-04-23T06:02:01.717Z,68.63
2024-04-23T06:03:01.714Z,68.63
2024-04-23T06:04:01.669Z,68.63
2024-04-23T06:05:01.794Z,68.28
2024-04-23T06:06:01.647Z,68.60
2024-04-23T06:07:01.633Z,68.91
2024-04-23T06:08:01.773Z,68.28
2024-04-23T06:09:01.604Z,68.18
2024-04-23T06:10:01.599Z,68.18
2024-04-23T06:11:01.840Z,68.25
2024-04-23T06:12:01.633Z,68.04
2024-04-23T06:13:01.594Z,68.04
2024-04-23T06:14:01.605Z,67.83
2024-04-23T06:15:01.536Z,67.42
2024-04-23T06:16:01.551Z,67.42
2024-04-23T06:17:01.632Z,67.63
2024-04-23T06:18:01.597Z,67.83
2024-04-23T06:19:01.568Z,67.94
2024-04-23T06:20:01.515Z,68.01
2024-04-23T06:21:01.479Z,68.43
2024-04-23T06:22:01.466Z,68.53
2024-04-23T06:23:01.594Z,68.43
2024-04-23T06:24:01.461Z,68.43
2024-04-23T06:25:01.435Z,68.32
2024-04-23T06:26:01.506Z,67.60
2024-04-23T06:27:01.433Z,67.88
2024-04-23T06:28:01.431Z,66.53
2024-04-23T06:29:01.489Z,66.00
2024-04-23T06:30:01.383Z,65.69
2024-04-23T06:31:01.435Z,65.59
2024-04-23T06:32:01.451Z,65.48
2024-04-23T06:33:01.741Z,65.25
2024-04-23T06:34:01.348Z,64.83
2024-04-23T06:35:01.467Z,64.62
2024-04-23T06:36:01.327Z,64.31
2024-04-23T06:37:01.312Z,64.18
2024-04-23T06:38:01.366Z,63.97
2024-04-23T06:39:01.296Z,63.56
2024-04-23T06:40:06.704Z,63.66
2024-04-23T06:41:01.329Z,63.45
2024-04-23T06:42:01.262Z,63.14
2024-04-23T06:43:01.280Z,63.24
2024-04-23T06:44:01.356Z,62.90
2024-04-23T06:45:01.232Z,62.28
2024-04-23T06:46:01.265Z,62.18
2024-04-23T06:47:01.275Z,62.28
2024-04-23T06:48:01.299Z,62.07
2024-04-23T06:49:01.205Z,62.07
2024-04-23T06:50:01.668Z,61.66
2024-04-23T06:51:01.187Z,61.53
2024-04-23T06:52:01.183Z,61.63
2024-04-23T06:53:02.700Z,61.84
2024-04-23T06:54:01.166Z,61.74
2024-04-23T06:55:01.139Z,61.53
2024-04-23T06:56:01.192Z,61.22
2024-04-23T06:57:01.114Z,60.67
2024-04-23T06:58:01.113Z,60.67
2024-04-23T06:59:01.141Z,60.88
2024-04-23T07:00:01.092Z,60.98
2024-04-23T07:01:01.160Z,60.88
2024-04-23T07:02:01.094Z,60.77
2024-04-23T07:03:01.107Z,60.88
2024-04-23T07:04:01.093Z,60.85
2024-04-23T07:05:01.032Z,60.85
2024-04-23T07:06:01.026Z,61.16
2024-04-23T07:07:01.033Z,60.53
2024-04-23T07:08:01.073Z,60.74
2024-04-23T07:09:01.002Z,60.64
2024-04-23T07:10:00.998Z,60.85
2024-04-23T07:11:01.055Z,60.85
2024-04-23T07:12:00.982Z,60.12
2024-04-23T07:13:00.948Z,59.91
2024-04-23T07:14:01.021Z,60.30
2024-04-23T07:15:00.942Z,60.41
2024-04-23T07:16:00.972Z,60.20
2024-04-23T07:17:01.041Z,60.02
2024-04-23T07:18:01.027Z,60.22
2024-04-23T07:19:02.481Z,59.91
2024-04-23T07:20:00.997Z,60.02
2024-04-23T07:21:00.862Z,60.22
2024-04-23T07:22:00.854Z,60.12
2024-04-23T07:23:00.864Z,59.99
2024-04-23T07:24:00.868Z,60.30
2024-04-23T07:25:00.830Z,60.20
2024-04-23T07:26:00.954Z,59.99
2024-04-23T07:27:00.819Z,60.20
2024-04-23T07:28:00.795Z,60.41
2024-04-23T07:29:00.958Z,59.86
2024-04-23T07:30:00.835Z,59.45
2024-04-23T07:31:00.783Z,59.86
2024-04-23T07:32:00.868Z,59.55
2024-04-23T07:33:00.915Z,59.45
2024-04-23T07:34:00.761Z,59.75
2024-04-23T07:35:00.880Z,60.06
2024-04-23T07:36:00.743Z,60.17
2024-04-23T07:37:00.722Z,60.48
2024-04-23T07:38:00.798Z,60.89
2024-04-23T07:39:00.704Z,61.49
2024-04-23T07:40:00.703Z,60.66
2024-04-23T07:41:01.024Z,59.94
2024-04-23T07:42:00.656Z,60.04
2024-04-23T07:43:00.651Z,59.63
2024-04-23T07:44:00.755Z,59.42
2024-04-23T07:45:00.643Z,57.84
2024-04-23T07:46:00.606Z,57.22
2024-04-23T07:47:00.645Z,55.66
2024-04-23T07:48:00.778Z,55.87
2024-04-23T07:49:00.594Z,56.08
2024-04-23T07:50:00.705Z,55.05
2024-04-23T07:51:00.575Z,54.91
2024-04-23T07:52:00.611Z,55.43
2024-04-23T07:53:00.656Z,55.54
2024-04-23T07:54:00.559Z,54.91
2024-04-23T07:55:00.527Z,54.82
2024-04-23T07:56:00.630Z,55.20
2024-04-23T07:57:00.519Z,55.51
2024-04-23T07:58:00.485Z,55.30
2024-04-23T07:59:00.592Z,55.41
2024-04-23T08:00:00.601Z,55.30
2024-04-23T08:01:00.477Z,54.17
2024-04-23T08:02:00.579Z,53.34
2024-04-23T08:03:00.761Z,53.21
2024-04-23T08:04:00.514Z,53.21
2024-04-23T08:05:00.596Z,53.52
2024-04-23T08:06:00.446Z,52.28
2024-04-23T08:07:00.445Z,52.18
2024-04-23T08:08:00.470Z,51.66
2024-04-23T08:09:00.471Z,52.39
2024-04-23T08:10:00.369Z,52.91
2024-04-23T08:11:00.419Z,53.21
2024-04-23T08:12:00.422Z,52.15
2024-04-23T08:13:00.367Z,51.54
2024-04-23T08:14:00.442Z,50.92
2024-04-23T08:15:00.359Z,49.99
2024-04-23T08:16:00.305Z,49.99
2024-04-23T08:17:00.394Z,50.92
2024-04-23T08:18:00.570Z,50.92
2024-04-23T08:19:00.372Z,51.12
2024-04-23T08:20:00.364Z,51.62
2024-04-23T08:21:00.257Z,51.51
2024-04-23T08:22:00.238Z,50.07
2024-04-23T08:23:00.395Z,49.76
2024-04-23T08:24:00.243Z,49.76
2024-04-23T08:25:00.277Z,49.65
2024-04-23T08:26:00.233Z,49.55
2024-04-23T08:27:00.186Z,49.55
2024-04-23T08:28:00.178Z,49.14
2024-04-23T08:29:00.216Z,49.44
2024-04-23T08:30:00.222Z,49.73
2024-04-23T08:31:00.171Z,49.73
2024-04-23T08:32:00.374Z,50.25
2024-04-23T08:33:00.485Z,50.46
2024-04-23T08:34:00.134Z,50.66
2024-04-23T08:35:00.310Z,50.15
2024-04-23T08:36:00.125Z,49.22
2024-04-23T08:37:00.113Z,48.88
2024-04-23T08:38:00.176Z,49.30
2024-04-23T08:39:00.112Z,49.61
2024-04-23T08:40:00.135Z,50.43
2024-04-23T08:41:00.145Z,49.91
2024-04-23T08:42:00.038Z,49.51
2024-04-23T08:43:00.023Z,49.19
2024-04-23T08:44:00.160Z,50.23
2024-04-23T08:45:00.030Z,48.37
2024-04-23T08:46:00.034Z,47.11
2024-04-23T08:47:00.078Z,46.80
2024-04-23T08:48:00.054Z,45.87
2024-04-23T08:48:59.984Z,45.77
2024-04-23T08:50:00.076Z,46.28
2024-04-23T08:50:59.943Z,45.98
2024-04-23T08:51:59.961Z,46.19
2024-04-23T08:52:59.984Z,45.98
2024-04-23T08:53:59.921Z,46.49
2024-04-23T08:54:59.933Z,46.70
2024-04-23T08:55:59.924Z,47.11
2024-04-23T08:56:59.883Z,47.52
2024-04-23T08:57:59.891Z,48.04
2024-04-23T08:58:59.879Z,47.52
2024-04-23T09:00:00.881Z,47.21
2024-04-23T09:00:59.925Z,47.40
2024-04-23T09:01:59.870Z,46.08
2024-04-23T09:02:59.882Z,46.26
2024-04-23T09:03:59.878Z,46.58
2024-04-23T09:04:59.818Z,46.88
2024-04-23T09:05:59.820Z,48.02
2024-04-23T09:06:59.804Z,47.60
2024-04-23T09:07:59.835Z,46.97
2024-04-23T09:08:59.779Z,47.06
2024-04-23T09:09:59.800Z,47.99
2024-04-23T09:10:59.817Z,47.17
2024-04-23T09:11:59.782Z,45.83
2024-04-23T09:12:59.731Z,46.14
2024-04-23T09:13:59.748Z,46.86
2024-04-23T09:14:59.729Z,47.89
2024-04-23T09:15:59.704Z,47.38
2024-04-23T09:16:59.736Z,46.55
2024-04-23T09:17:59.766Z,47.69
2024-04-23T09:18:59.674Z,47.89
2024-04-23T09:19:59.674Z,46.97
2024-04-23T09:20:59.667Z,47.58
2024-04-23T09:21:59.650Z,48.41
2024-04-23T09:22:59.657Z,48.92
2024-04-23T09:23:59.619Z,48.30
2024-04-23T09:24:59.598Z,47.69
2024-04-23T09:25:59.637Z,47.99
2024-04-23T09:26:59.578Z,48.38
2024-04-23T09:27:59.598Z,48.49
2024-04-23T09:28:59.611Z,48.90
2024-04-23T09:29:59.557Z,48.28
2024-04-23T09:30:59.584Z,47.35
2024-04-23T09:31:59.655Z,47.05
2024-04-23T09:32:59.668Z,48.07
2024-04-23T09:33:59.515Z,47.87
2024-04-23T09:34:59.580Z,46.53
2024-04-23T09:35:59.485Z,46.94
2024-04-23T09:36:59.488Z,47.45
2024-04-23T09:37:59.487Z,48.38
2024-04-23T09:38:59.527Z,48.49
2024-04-23T09:39:59.444Z,48.69
2024-04-23T09:40:59.465Z,48.57
2024-04-23T09:41:59.506Z,48.36
2024-04-23T09:42:59.436Z,48.77
2024-04-23T09:43:59.438Z,49.90
2024-04-23T09:44:59.413Z,49.08
2024-04-23T09:45:59.377Z,47.54
2024-04-23T09:46:59.406Z,47.54
2024-04-23T09:47:59.445Z,48.57
2024-04-23T09:48:59.365Z,47.54
2024-04-23T09:49:59.474Z,46.94
2024-04-23T09:50:59.352Z,47.25
2024-04-23T09:51:59.361Z,47.56
2024-04-23T09:52:59.338Z,47.66
2024-04-23T09:53:59.302Z,48.59
2024-04-23T09:54:59.288Z,48.59
2024-04-23T09:55:59.310Z,49.21
2024-04-23T09:56:59.298Z,49.00
2024-04-23T09:57:59.283Z,48.69
2024-04-23T09:58:59.357Z,47.15
2024-04-23T09:59:59.246Z,46.53
2024-04-23T10:00:59.246Z,47.02
2024-04-23T10:01:59.340Z,46.92
2024-04-23T10:02:59.310Z,47.95
2024-04-23T10:03:59.234Z,47.95
2024-04-23T10:04:59.418Z,46.72
2024-04-23T10:05:59.182Z,45.89
2024-04-23T10:06:59.203Z,46.51
2024-04-23T10:07:59.244Z,47.13
2024-04-23T10:08:59.177Z,46.92
2024-04-23T10:09:59.159Z,47.64
2024-04-23T10:10:59.249Z,48.05
2024-04-23T10:11:59.235Z,48.85
2024-04-23T10:12:59.120Z,48.03
2024-04-23T10:13:59.113Z,48.13
2024-04-23T10:14:59.097Z,47.00
2024-04-23T10:15:59.097Z,47.31
2024-04-23T10:16:59.181Z,48.24
2024-04-23T10:17:59.180Z,48.24
2024-04-23T10:18:59.066Z,47.11
2024-04-23T10:19:59.075Z,47.62
2024-04-23T10:20:59.030Z,47.72
2024-04-23T10:21:59.041Z,47.80
2024-04-23T10:22:59.061Z,47.70
2024-04-23T10:23:59.018Z,46.88
2024-04-23T10:24:59.048Z,46.26
2024-04-23T10:25:59.043Z,45.85
2024-04-23T10:26:58.970Z,45.93
2024-04-23T10:27:58.982Z,47.47
2024-04-23T10:28:59.026Z,46.96
2024-04-23T10:29:58.945Z,46.75
2024-04-23T10:30:58.939Z,46.65
2024-04-23T10:31:59.002Z,45.31
2024-04-23T10:32:58.984Z,44.49
2024-04-23T10:33:58.893Z,44.49
2024-04-23T10:34:58.952Z,45.10
2024-04-23T10:35:58.897Z,45.21
2024-04-23T10:36:58.879Z,44.80
2024-04-23T10:37:58.939Z,44.49
2024-04-23T10:38:58.878Z,45.31
2024-04-23T10:39:58.851Z,46.24
2024-04-23T10:40:59.371Z,46.44
2024-04-23T10:41:58.812Z,45.83
2024-04-23T10:42:58.820Z,45.42
2024-04-23T10:43:58.835Z,45.21
2024-04-23T10:44:58.820Z,45.52
2024-04-23T10:45:58.790Z,45.31
2024-04-23T10:46:58.858Z,44.80
2024-04-23T10:47:59.601Z,45.70
2024-04-23T10:48:58.813Z,45.81
2024-04-23T10:49:58.757Z,44.57
2024-04-23T10:50:58.725Z,44.17
2024-04-23T10:51:58.730Z,44.57
2024-04-23T10:52:58.803Z,45.19
2024-04-23T10:53:58.715Z,45.40
2024-04-23T10:54:58.697Z,45.78
2024-04-23T10:55:58.715Z,44.86
2024-04-23T10:56:58.664Z,44.24
2024-04-23T10:57:58.646Z,45.37
2024-04-23T10:58:58.744Z,45.48
2024-04-23T10:59:58.634Z,45.78
2024-04-23T11:00:58.706Z,45.04
2024-04-23T11:01:58.677Z,45.97
2024-04-23T11:02:58.696Z,45.66
2024-04-23T11:03:58.860Z,44.64
2024-04-23T11:04:58.882Z,43.81
2024-04-23T11:05:58.813Z,42.99
2024-04-23T11:06:58.564Z,43.12
2024-04-23T11:07:58.606Z,43.52
2024-04-23T11:08:58.565Z,44.35
2024-04-23T11:09:58.588Z,44.04
2024-04-23T11:10:58.586Z,43.52
2024-04-23T11:11:58.525Z,43.20
2024-04-23T11:12:58.489Z,42.99
2024-04-23T11:13:58.538Z,44.02
2024-04-23T11:14:58.524Z,44.43
2024-04-23T11:15:58.474Z,44.00
2024-04-23T11:16:58.531Z,43.90
2024-04-23T11:17:58.495Z,44.62
2024-04-23T11:18:58.567Z,44.31
2024-04-23T11:19:58.455Z,43.79
2024-04-23T11:20:58.573Z,43.79
2024-04-23T11:21:58.424Z,43.59
2024-04-23T11:22:58.449Z,43.90
2024-04-23T11:23:58.374Z,43.18
2024-04-23T11:24:58.443Z,42.15
2024-04-23T11:25:58.554Z,42.87
2024-04-23T11:26:58.347Z,43.79
2024-04-23T11:27:58.342Z,44.00
2024-04-23T11:28:58.438Z,44.82
2024-04-23T11:29:58.334Z,44.49
2024-04-23T11:30:58.495Z,43.77
2024-04-23T11:31:58.335Z,43.05
2024-04-23T11:32:58.653Z,42.85
2024-04-23T11:33:58.313Z,42.75
2024-04-23T11:34:58.362Z,42.95
2024-04-23T11:35:58.256Z,42.93
2024-04-23T11:36:58.264Z,41.80
2024-04-23T11:37:58.313Z,41.09
2024-04-23T11:38:58.237Z,41.19
2024-04-23T11:39:58.268Z,40.59
2024-04-23T11:40:58.253Z,41.21
2024-04-23T11:41:58.252Z,41.83
2024-04-23T11:42:58.175Z,41.93
2024-04-23T11:43:58.204Z,42.03
2024-04-23T11:44:58.222Z,43.37
2024-04-23T11:45:58.144Z,43.37
2024-04-23T11:46:58.239Z,42.85
2024-04-23T11:47:58.216Z,41.93
2024-04-23T11:48:58.118Z,42.03
2024-04-23T11:49:58.145Z,41.93
2024-04-23T11:50:58.101Z,42.54
2024-04-23T11:51:58.099Z,42.75
2024-04-23T11:52:58.119Z,42.24
2024-04-23T11:53:58.066Z,43.37
2024-04-23T11:54:58.076Z,43.26
2024-04-23T11:55:58.086Z,43.88
2024-04-23T11:56:58.091Z,44.17
2024-04-23T11:57:58.017Z,42.73
2024-04-23T11:58:58.036Z,43.75
2024-04-23T11:59:57.998Z,43.53
2024-04-23T12:00:58.018Z,41.78
2024-04-23T12:01:58.029Z,41.38
2024-04-23T12:02:58.040Z,41.78
2024-04-23T12:03:58.035Z,42.07
2024-04-23T12:04:58.046Z,42.48
2024-04-23T12:05:58.053Z,42.48
2024-04-23T12:06:57.985Z,41.87
2024-04-23T12:07:58.003Z,41.85
2024-04-23T12:08:57.924Z,41.85
2024-04-23T12:09:57.890Z,41.64
2024-04-23T12:10:57.944Z,42.16
2024-04-23T12:11:57.914Z,42.55
2024-04-23T12:12:57.895Z,41.83
2024-04-23T12:13:57.876Z,41.32
2024-04-23T12:14:57.849Z,40.30
2024-04-23T12:15:57.848Z,40.17
2024-04-23T12:16:57.871Z,39.67
2024-04-23T12:17:57.877Z,39.67
2024-04-23T12:18:57.821Z,39.89
2024-04-23T12:19:57.810Z,39.78
2024-04-23T12:20:57.782Z,40.30
2024-04-23T12:21:57.773Z,39.78
2024-04-23T12:22:57.797Z,39.58
2024-04-23T12:23:57.746Z,38.85
2024-04-23T12:24:57.745Z,39.05
2024-04-23T12:25:57.779Z,39.15
2024-04-23T12:26:57.722Z,39.46
2024-04-23T12:27:57.729Z,39.56
2024-04-23T12:28:57.779Z,38.95
2024-04-23T12:29:57.691Z,38.75
2024-04-23T12:30:57.674Z,37.72
2024-04-23T12:31:57.778Z,37.41
2024-04-23T12:32:57.877Z,38.64
2024-04-23T12:33:57.660Z,37.31
2024-04-23T12:34:57.698Z,37.52
2024-04-23T12:35:57.624Z,38.34
2024-04-23T12:36:57.617Z,39.15
2024-04-23T12:37:57.659Z,39.05
2024-04-23T12:38:57.626Z,38.73
2024-04-23T12:39:57.581Z,38.11
2024-04-23T12:40:57.590Z,37.19
2024-04-23T12:41:57.559Z,36.79
2024-04-23T12:42:57.649Z,35.97
2024-04-23T12:43:57.615Z,36.68
2024-04-23T12:44:57.554Z,37.72
2024-04-23T12:45:57.539Z,38.21
2024-04-23T12:46:57.561Z,37.60
2024-04-23T12:47:57.619Z,38.42
2024-04-23T12:48:57.657Z,39.85
2024-04-23T12:49:57.503Z,38.01
2024-04-23T12:50:57.471Z,38.20
2024-04-23T12:51:57.461Z,38.71
2024-04-23T12:52:57.472Z,38.39
2024-04-23T12:53:57.465Z,37.46
2024-04-23T12:54:57.446Z,36.43